MRV weather

Mineralnyye Vody Airport
Mineralnyye Vody, Stavropol Krai, Russia

Public forecast

Using degrees Celsius for public forecast. Weather courtesy of forecast.io.

METAR (pilot weather report)

Retrieved 2019/08/21 03:30 UTC (12 minutes ago):

URMM 210330Z VRB01MPS 9999 NSC 21/15 Q1016 R12/090070 NOSIG RMK QFE734/0978

TAF (pilot weather forecast)

Retrieved 2019/08/21 03:24 UTC (18 minutes ago):

TAF URMM 210200Z 2103/2203 10003G08MPS 9999 NSC TX35/2112Z TN19/2103Z